Time;durP1;ratioP1;P1;durP2;ratioP2;P2;SDS_P1;SDS_P2;PMS_P1;PMS_P2;Temp;Humidity;BMP_temperature;BMP_pressure;BME280_temperature;BME280_humidity;BME280_pressure;Samples;Min_cycle;Max_cycle;Signal;HPM_P1;HPM_P2
2023/11/15 00:02:28;;;;;;;9.10;2.80;;;;;;;12.28;59.86;97672.67;234008;216;149631;-60
2023/11/15 00:07:33;;;;;;;9.50;2.60;;;;;;;12.29;59.88;97677.02;234046;216;139751;-61
2023/11/15 00:12:36;;;;;;;7.20;2.60;;;;;;;12.28;59.93;97676.91;233961;216;137219;-64
2023/11/15 00:17:39;;;;;;;5.60;1.90;;;;;;;12.26;60.14;97670.65;234169;215;149035;-64
2023/11/15 00:22:43;;;;;;;5.20;1.80;;;;;;;12.27;60.26;97666.50;233929;216;139833;-60
2023/11/15 00:27:46;;;;;;;4.20;1.90;;;;;;;12.28;60.36;97668.01;233961;216;138424;-60
2023/11/15 00:32:51;;;;;;;5.10;2.00;;;;;;;12.26;60.68;97675.17;234100;216;149318;-61
2023/11/15 00:37:54;;;;;;;7.70;2.00;;;;;;;12.26;60.77;97671.06;234048;216;138908;-61
2023/11/15 00:42:57;;;;;;;4.60;2.00;;;;;;;12.28;60.92;97668.70;234129;216;138391;-62
2023/11/15 00:48:01;;;;;;;4.30;1.40;;;;;;;12.29;60.98;97671.48;233996;216;149682;-60
2023/11/15 00:53:04;;;;;;;3.80;1.50;;;;;;;12.30;61.10;97670.35;234195;216;139718;-59
2023/11/15 00:58:09;;;;;;;3.80;1.50;;;;;;;12.29;61.40;97672.50;234073;215;138869;-62
2023/11/15 01:03:15;;;;;;;4.50;1.60;;;;;;;12.28;61.56;97666.27;234163;216;149419;-62
2023/11/15 01:08:19;;;;;;;5.40;1.50;;;;;;;12.27;61.85;97666.39;234179;215;138856;-62
2023/11/15 01:13:23;;;;;;;5.00;1.30;;;;;;;12.24;62.06;97668.70;234141;216;137936;-62
2023/11/15 01:18:26;;;;;;;4.00;1.40;;;;;;;12.18;62.36;97665.20;234159;216;150140;-61
2023/11/15 01:23:29;;;;;;;4.50;1.60;;;;;;;12.16;62.65;97661.31;234260;216;139338;-62
2023/11/15 01:28:33;;;;;;;3.80;1.50;;;;;;;12.15;62.71;97658.90;234075;216;137762;-62
2023/11/15 01:33:37;;;;;;;3.70;1.40;;;;;;;12.15;62.79;97652.86;234137;216;149402;-61
2023/11/15 01:38:41;;;;;;;3.70;1.20;;;;;;;12.17;62.77;97655.15;234274;216;138930;-61
2023/11/15 01:43:44;;;;;;;4.10;1.40;;;;;;;12.17;62.76;97658.70;234197;215;137725;-61
2023/11/15 01:48:47;;;;;;;4.00;1.30;;;;;;;12.19;62.78;97660.16;234208;216;149465;-61
2023/11/15 01:53:51;;;;;;;3.20;1.30;;;;;;;12.20;63.03;97665.18;234060;215;139884;-62
2023/11/15 01:58:54;;;;;;;4.60;1.30;;;;;;;12.19;63.31;97662.80;234270;216;138692;-61
2023/11/15 02:03:58;;;;;;;2.60;1.20;;;;;;;12.17;63.61;97665.85;233840;215;149137;-61
2023/11/15 02:09:04;;;;;;;3.90;1.40;;;;;;;12.13;64.08;97668.50;234171;216;139292;-61
2023/11/15 02:14:08;;;;;;;4.50;1.50;;;;;;;12.05;64.83;97670.23;234204;216;137208;-60
2023/11/15 02:19:11;;;;;;;4.30;1.50;;;;;;;11.97;65.53;97661.91;233290;216;150569;-63
2023/11/15 02:24:14;;;;;;;4.00;1.30;;;;;;;11.94;66.14;97663.81;233425;216;140543;-61
2023/11/15 02:29:17;;;;;;;5.30;1.70;;;;;;;11.94;66.53;97663.45;234272;216;138346;-61
2023/11/15 02:34:21;;;;;;;3.30;1.40;;;;;;;11.97;66.74;97664.41;234108;216;149428;-61
2023/11/15 02:39:25;;;;;;;3.30;1.20;;;;;;;11.99;67.14;97663.88;234124;216;139003;-61
2023/11/15 02:44:28;;;;;;;3.30;1.30;;;;;;;11.92;67.48;97666.26;234120;215;137281;-60
2023/11/15 02:49:31;;;;;;;1.70;1.00;;;;;;;11.84;67.95;97668.21;234091;216;151163;-61
2023/11/15 02:54:34;;;;;;;2.70;1.40;;;;;;;11.76;68.59;97670.90;234188;216;139956;-61
2023/11/15 02:59:37;;;;;;;4.00;1.30;;;;;;;11.68;69.03;97673.54;234236;216;137814;-61
2023/11/15 03:04:41;;;;;;;3.00;1.20;;;;;;;11.65;69.43;97671.52;234188;216;150906;-62
2023/11/15 03:09:44;;;;;;;3.80;1.20;;;;;;;11.61;70.01;97677.19;234095;216;140293;-61
2023/11/15 03:14:47;;;;;;;3.60;1.30;;;;;;;11.65;70.41;97680.05;234109;216;137985;-60
2023/11/15 03:19:51;;;;;;;2.50;1.10;;;;;;;11.66;70.70;97684.81;234128;216;149510;-60
2023/11/15 03:24:54;;;;;;;2.80;1.40;;;;;;;11.65;70.94;97684.84;234121;216;138909;-59
2023/11/15 03:29:57;;;;;;;2.80;1.30;;;;;;;11.59;71.25;97686.79;234205;216;137871;-59
2023/11/15 03:35:01;;;;;;;3.30;1.30;;;;;;;11.50;71.57;97683.64;234296;216;150031;-61
2023/11/15 03:40:08;;;;;;;2.80;1.60;;;;;;;11.44;72.04;97683.89;234158;216;139420;-60
2023/11/15 03:45:11;;;;;;;2.70;1.40;;;;;;;11.38;72.40;97688.30;234125;216;140088;-60
2023/11/15 03:50:15;;;;;;;2.00;1.30;;;;;;;11.38;72.67;97689.37;234205;216;149958;-60
2023/11/15 03:55:19;;;;;;;3.80;1.50;;;;;;;11.40;72.93;97692.00;234149;216;138803;-60
2023/11/15 04:00:23;;;;;;;2.70;1.60;;;;;;;11.41;73.09;97691.61;234150;216;138031;-60
2023/11/15 04:05:28;;;;;;;3.90;1.70;;;;;;;11.34;73.28;97686.84;234274;216;150050;-60
2023/11/15 04:10:31;;;;;;;3.00;1.40;;;;;;;11.23;73.92;97687.46;234161;215;138809;-60
2023/11/15 04:15:34;;;;;;;3.30;1.60;;;;;;;11.17;74.10;97684.93;234150;215;139018;-61
2023/11/15 04:20:38;;;;;;;2.50;1.60;;;;;;;11.12;74.25;97685.35;234152;216;149910;-61
2023/11/15 04:25:41;;;;;;;4.00;1.60;;;;;;;11.10;74.52;97692.30;233750;216;138905;-60
2023/11/15 04:30:45;;;;;;;2.10;1.30;;;;;;;11.09;74.68;97686.85;234139;216;138905;-61
2023/11/15 04:35:48;;;;;;;2.50;1.30;;;;;;;11.06;74.60;97681.58;234192;216;149923;-62
2023/11/15 04:40:52;;;;;;;3.70;1.70;;;;;;;10.99;74.88;97686.15;234229;215;138693;-63
2023/11/15 04:45:55;;;;;;;2.80;1.30;;;;;;;10.94;74.98;97687.59;234184;215;137011;-62
2023/11/15 04:50:59;;;;;;;2.40;1.20;;;;;;;10.86;74.97;97688.85;234128;216;149404;-64
2023/11/15 04:56:03;;;;;;;1.50;0.90;;;;;;;10.85;75.07;97688.92;233989;216;138969;-62
2023/11/15 05:01:06;;;;;;;2.40;0.90;;;;;;;10.83;74.91;97686.08;234187;216;153702;-64
2023/11/15 05:06:09;;;;;;;1.90;0.80;;;;;;;10.84;74.97;97692.20;234158;215;149398;-63
2023/11/15 05:11:12;;;;;;;1.30;0.80;;;;;;;10.78;74.79;97690.20;234308;215;138928;-62
2023/11/15 05:16:17;;;;;;;2.20;1.00;;;;;;;10.74;74.73;97687.95;234102;216;138084;-62
2023/11/15 05:21:20;;;;;;;2.40;0.70;;;;;;;10.67;74.79;97689.92;234151;216;150108;-62
2023/11/15 05:26:23;;;;;;;0.80;0.70;;;;;;;10.60;74.84;97684.98;234149;215;139811;-61
2023/11/15 05:31:26;;;;;;;1.70;0.80;;;;;;;10.61;74.79;97678.70;234112;216;140280;-61
2023/11/15 05:36:29;;;;;;;1.10;0.60;;;;;;;10.63;74.84;97679.23;234132;216;151070;-60
2023/11/15 05:41:32;;;;;;;1.30;0.80;;;;;;;10.65;74.77;97682.11;234306;216;139371;-60
2023/11/15 05:46:36;;;;;;;1.40;0.90;;;;;;;10.67;74.86;97684.74;234173;213;136944;-61
2023/11/15 05:51:41;;;;;;;28.70;24.20;;;;;;;10.67;75.25;97690.26;234160;216;149423;-61
2023/11/15 05:56:47;;;;;;;1.60;1.30;;;;;;;10.69;75.21;97689.23;234063;216;140109;-61
2023/11/15 06:01:51;;;;;;;26.10;20.90;;;;;;;10.67;75.15;97694.86;234077;216;137992;-62
2023/11/15 06:06:55;;;;;;;1.60;1.20;;;;;;;10.68;75.29;97699.80;234208;212;150026;-61
2023/11/15 06:11:58;;;;;;;1.80;0.90;;;;;;;10.71;75.26;97703.40;234098;216;139773;-60
2023/11/15 06:17:01;;;;;;;1.60;0.90;;;;;;;10.75;75.23;97712.33;234251;215;137257;-61
2023/11/15 06:22:04;;;;;;;1.20;0.80;;;;;;;10.75;75.24;97713.92;234132;216;149040;-60
2023/11/15 06:27:07;;;;;;;1.40;1.00;;;;;;;10.73;75.31;97722.23;234137;216;138904;-61
2023/11/15 06:32:11;;;;;;;51.30;35.80;;;;;;;10.72;75.47;97726.90;234147;215;138143;-59
2023/11/15 06:37:14;;;;;;;2.30;1.30;;;;;;;10.70;75.96;97736.47;234119;216;149470;-60
2023/11/15 06:42:21;;;;;;;3.80;2.50;;;;;;;10.71;75.79;97738.02;234170;216;139224;-60
2023/11/15 06:47:25;;;;;;;2.90;1.50;;;;;;;10.74;75.81;97740.42;234312;216;137520;-62
2023/11/15 06:52:28;;;;;;;1.30;1.10;;;;;;;10.76;75.96;97747.86;233946;216;149262;-62
2023/11/15 06:57:32;;;;;;;3.90;1.60;;;;;;;10.77;75.90;97755.06;234153;215;138747;-63
2023/11/15 07:02:36;;;;;;;3.10;1.40;;;;;;;10.77;75.98;97761.13;234105;216;138481;-62
2023/11/15 07:07:40;;;;;;;3.00;1.50;;;;;;;10.76;76.00;97766.48;234091;216;150378;-62
2023/11/15 07:12:43;;;;;;;2.20;1.20;;;;;;;10.71;76.09;97765.83;234151;215;138908;-62
2023/11/15 07:17:47;;;;;;;1.40;1.10;;;;;;;10.69;76.55;97770.42;234221;216;139214;-61
2023/11/15 07:22:50;;;;;;;113.00;77.60;;;;;;;10.72;76.77;97772.89;234213;216;149535;-64
2023/11/15 07:27:55;;;;;;;11.30;7.00;;;;;;;10.80;76.99;97771.14;234123;216;139864;-62
2023/11/15 07:33:00;;;;;;;2.20;1.60;;;;;;;10.85;76.72;97768.27;234153;216;137630;-62
2023/11/15 07:38:03;;;;;;;2.30;1.40;;;;;;;10.87;76.55;97769.60;234107;215;149595;-61
2023/11/15 07:43:06;;;;;;;2.80;1.50;;;;;;;10.85;76.51;97775.36;234157;216;140288;-62
2023/11/15 07:48:10;;;;;;;2.40;1.60;;;;;;;10.85;76.68;97783.64;234234;216;138786;-61
2023/11/15 07:53:13;;;;;;;2.90;1.50;;;;;;;10.93;76.70;97790.60;234185;215;149444;-62
2023/11/15 07:58:17;;;;;;;3.10;1.60;;;;;;;10.95;76.76;97795.27;233988;215;139214;-62
2023/11/15 08:03:21;;;;;;;3.30;1.50;;;;;;;10.95;76.53;97801.63;234036;216;138081;-62
2023/11/15 08:08:25;;;;;;;3.40;1.90;;;;;;;10.94;76.51;97808.27;234168;215;149397;-62
2023/11/15 08:13:28;;;;;;;3.40;1.90;;;;;;;10.92;76.77;97818.02;234082;215;140987;-62
2023/11/15 08:18:31;;;;;;;4.00;1.90;;;;;;;10.92;76.90;97820.88;234137;216;137233;-63
2023/11/15 08:23:35;;;;;;;16.40;11.00;;;;;;;11.00;77.55;97824.66;234192;215;149726;-62
2023/11/15 08:28:40;;;;;;;2.60;1.70;;;;;;;11.14;77.21;97824.14;234086;215;139648;-61
2023/11/15 08:33:44;;;;;;;2.40;1.60;;;;;;;11.26;76.82;97830.64;234117;215;138600;-63
2023/11/15 08:38:49;;;;;;;3.30;1.30;;;;;;;11.28;76.40;97836.63;234208;215;149487;-62
2023/11/15 08:43:53;;;;;;;2.60;1.60;;;;;;;11.27;76.22;97848.46;234109;216;140154;-63
2023/11/15 08:48:56;;;;;;;2.80;1.40;;;;;;;11.28;76.24;97855.85;234186;215;138888;-62
2023/11/15 08:53:59;;;;;;;1.90;1.00;;;;;;;11.20;75.96;97858.16;234159;216;150160;-62
2023/11/15 08:59:04;;;;;;;2.30;1.30;;;;;;;11.19;76.06;97867.09;234252;215;138954;-62
2023/11/15 09:04:08;;;;;;;4.40;1.00;;;;;;;11.26;75.94;97870.95;234150;216;141464;-62
2023/11/15 09:09:14;;;;;;;2.10;1.10;;;;;;;11.26;75.85;97873.62;234196;216;149912;-61
2023/11/15 09:14:18;;;;;;;2.00;1.30;;;;;;;11.27;75.74;97882.92;234048;216;139535;-66
2023/11/15 09:19:21;;;;;;;1.60;1.10;;;;;;;11.24;75.73;97887.65;233874;216;137127;-63
2023/11/15 09:24:26;;;;;;;1.90;1.30;;;;;;;11.27;75.64;97893.40;233283;215;149216;-64
2023/11/15 09:29:30;;;;;;;34.30;24.20;;;;;;;11.31;75.44;97896.29;234127;215;139823;-63
2023/11/15 09:34:33;;;;;;;3.30;1.70;;;;;;;11.37;75.56;97904.64;234057;216;138589;-63
2023/11/15 09:39:38;;;;;;;3.40;1.80;;;;;;;11.43;75.11;97911.41;234199;216;149381;-65
2023/11/15 09:44:43;;;;;;;3.20;1.60;;;;;;;11.50;75.00;97914.70;234043;216;138682;-64
2023/11/15 09:49:49;;;;;;;3.20;1.70;;;;;;;11.48;75.09;97918.63;234046;216;138261;-63
2023/11/15 09:54:53;;;;;;;;;;;;;;;11.45;75.29;97921.02;234094;215;149754;-64
2023/11/15 09:59:56;;;;;;;3.20;1.70;;;;;;;11.41;75.40;97923.36;234135;216;140347;-63
2023/11/15 10:05:19;;;;;;;2.70;1.70;;;;;;;11.39;75.50;97930.11;234271;215;137305;-63
2023/11/15 10:10:24;;;;;;;5.20;1.70;;;;;;;11.42;75.75;97939.10;234051;216;149445;-63
2023/11/15 10:15:36;;;;;;;2.70;1.90;;;;;;;11.46;75.95;97938.36;234140;216;138890;-60
2023/11/15 10:20:41;;;;;;;4.60;2.60;;;;;;;11.49;75.88;97942.02;234035;215;137338;-60
2023/11/15 10:25:53;;;;;;;4.70;3.00;;;;;;;11.50;76.02;97946.49;233798;215;149215;-61
2023/11/15 10:31:05;;;;;;;3.30;2.20;;;;;;;11.54;75.95;97951.15;234065;216;140384;-60
2023/11/15 10:36:15;;;;;;;2.50;2.00;;;;;;;11.52;75.72;97957.86;234176;216;138090;-59
2023/11/15 10:41:20;;;;;;;2.00;1.70;;;;;;;11.51;75.57;97968.98;234200;216;149272;-61
2023/11/15 10:46:26;;;;;;;3.40;1.90;;;;;;;11.54;75.54;97964.33;234044;216;140819;-60
2023/11/15 10:51:42;;;;;;;2.40;1.50;;;;;;;11.53;75.45;97970.58;234041;216;137101;-61
2023/11/15 10:56:47;;;;;;;;;;;;;;;11.50;75.52;97971.95;234175;216;150157;-59
2023/11/15 11:01:54;;;;;;;3.30;1.80;;;;;;;11.46;75.49;97972.27;234136;215;138848;-62
2023/11/15 11:07:07;;;;;;;3.00;1.60;;;;;;;11.43;75.44;97977.12;234068;215;139066;-61
2023/11/15 11:12:14;;;;;;;2.50;1.60;;;;;;;11.47;75.42;97987.46;234038;216;150445;-61
2023/11/15 11:17:32;;;;;;;2.40;1.80;;;;;;;11.53;75.49;97993.38;234169;216;138677;-60
2023/11/15 11:22:35;;;;;;;6.70;2.20;;;;;;;11.58;75.08;97993.61;234077;216;138429;-64
2023/11/15 11:27:55;;;;;;;5.60;3.30;;;;;;;11.60;75.23;98000.20;234168;216;149299;-65
2023/11/15 11:33:19;;;;;;;3.70;2.30;;;;;;;11.68;75.14;98003.14;234079;216;141887;-64
2023/11/15 11:38:54;;;;;;;3.40;1.80;;;;;;;11.68;75.00;98006.33;234137;216;138251;-63
2023/11/15 11:43:59;;;;;;;2.80;1.70;;;;;;;11.67;74.85;98020.23;234056;216;151782;-65
2023/11/15 11:49:03;;;;;;;2.30;1.70;;;;;;;11.73;74.52;98023.52;234103;216;139780;-66
2023/11/15 11:54:19;;;;;;;3.90;2.00;;;;;;;11.70;73.74;98025.91;234059;216;137349;-64
2023/11/15 11:59:28;;;;;;;4.20;2.50;;;;;;;11.69;73.87;98035.41;234223;216;149636;-64
2023/11/15 12:04:42;;;;;;;3.50;2.20;;;;;;;11.66;73.74;98039.90;234088;215;139683;-64
2023/11/15 12:09:46;;;;;;;3.50;2.30;;;;;;;11.68;73.05;98044.20;234109;216;138864;-64
2023/11/15 12:14:51;;;;;;;2.40;1.70;;;;;;;11.67;72.59;98051.71;234081;216;150769;-65
2023/11/15 12:19:54;;;;;;;3.30;2.00;;;;;;;11.67;72.41;98051.58;234128;216;139426;-64
2023/11/15 12:24:58;;;;;;;3.10;2.00;;;;;;;11.83;72.51;98050.60;234136;216;137790;-65
2023/11/15 12:30:02;;;;;;;3.10;2.00;;;;;;;11.93;71.66;98054.73;234153;215;150698;-62
2023/11/15 12:35:09;;;;;;;3.20;2.00;;;;;;;11.95;70.88;98058.83;234235;216;140518;-63
2023/11/15 12:40:21;;;;;;;4.40;1.90;;;;;;;11.96;70.28;98072.09;234120;216;137898;-67
2023/11/15 12:45:31;;;;;;;2.80;1.70;;;;;;;11.90;69.92;98073.30;234075;216;149546;-62
2023/11/15 12:50:39;;;;;;;2.80;1.60;;;;;;;11.81;69.58;98080.02;234018;216;138774;-63
2023/11/15 12:55:53;;;;;;;3.80;2.00;;;;;;;11.76;69.87;98082.59;234094;216;141118;-64
2023/11/15 13:01:01;;;;;;;2.20;1.80;;;;;;;11.74;70.31;98089.70;234014;216;149761;-62
2023/11/15 13:06:13;;;;;;;5.00;1.60;;;;;;;11.62;71.00;98093.38;234051;216;139662;-64
2023/11/15 13:11:29;;;;;;;2.60;1.50;;;;;;;11.49;71.95;98105.79;234250;216;138006;-62
2023/11/15 13:16:33;;;;;;;2.30;1.30;;;;;;;11.38;72.59;98103.08;234124;216;150474;-64
2023/11/15 13:21:36;;;;;;;2.90;1.40;;;;;;;11.42;72.66;98110.42;234083;216;139901;-65
2023/11/15 13:26:40;;;;;;;2.90;1.40;;;;;;;11.49;72.10;98104.73;234126;216;138344;-64
2023/11/15 13:31:43;;;;;;;3.30;1.50;;;;;;;11.60;71.50;98107.33;234004;216;149885;-62
2023/11/15 13:36:46;;;;;;;2.80;1.80;;;;;;;11.61;70.33;98115.98;234126;216;140676;-61
2023/11/15 13:41:49;;;;;;;4.20;2.10;;;;;;;11.53;69.94;98122.48;233835;216;138488;-65
2023/11/15 13:46:53;;;;;;;4.60;2.00;;;;;;;11.42;70.25;98122.52;234209;216;149529;-62
2023/11/15 13:51:57;;;;;;;3.40;1.70;;;;;;;11.37;70.08;98122.85;234071;216;139734;-63
2023/11/15 13:57:01;;;;;;;3.50;1.90;;;;;;;11.34;69.86;98125.27;233992;216;138347;-64
2023/11/15 14:02:04;;;;;;;2.90;2.10;;;;;;;11.34;69.73;98129.31;234060;216;149941;-63
2023/11/15 14:07:08;;;;;;;5.00;2.30;;;;;;;11.37;69.35;98136.59;234057;215;139113;-63
2023/11/15 14:12:11;;;;;;;3.50;2.10;;;;;;;11.37;68.93;98150.26;234096;216;137378;-65
2023/11/15 14:17:16;;;;;;;2.80;1.90;;;;;;;11.40;68.74;98162.45;234200;216;149731;-63
2023/11/15 14:22:20;;;;;;;3.70;2.20;;;;;;;11.44;68.37;98171.02;234116;215;140415;-61
2023/11/15 14:27:23;;;;;;;3.90;2.00;;;;;;;11.42;67.97;98172.28;234120;216;138131;-63
2023/11/15 14:32:27;;;;;;;6.20;4.20;;;;;;;11.42;67.37;98175.81;234008;215;149821;-65
2023/11/15 14:37:33;;;;;;;4.60;1.90;;;;;;;11.33;66.00;98182.83;234008;216;139210;-65
2023/11/15 14:42:42;;;;;;;2.90;1.70;;;;;;;11.22;65.73;98189.77;234083;215;138495;-65
2023/11/15 14:47:46;;;;;;;3.80;1.30;;;;;;;11.13;65.22;98196.89;234061;216;150421;-64
2023/11/15 14:52:55;;;;;;;2.10;1.10;;;;;;;11.06;64.78;98213.55;234193;216;150384;-61
2023/11/15 14:57:59;;;;;;;3.40;1.60;;;;;;;10.98;64.61;98230.16;234092;216;138974;-60
2023/11/15 15:03:05;;;;;;;1.80;1.00;;;;;;;10.93;64.98;98247.44;234041;216;149508;-59
2023/11/15 15:08:13;;;;;;;;;;;;;;;10.79;65.19;98270.98;234014;216;139556;-65
2023/11/15 15:13:20;;;;;;;1.90;1.20;;;;;;;10.66;66.13;98294.50;234121;216;134290;-63
2023/11/15 15:18:24;;;;;;;1.60;0.90;;;;;;;10.51;67.11;98303.23;234034;216;149912;-62
2023/11/15 15:23:36;;;;;;;5.40;1.40;;;;;;;10.48;67.60;98312.16;234005;215;138770;-65
2023/11/15 15:28:44;;;;;;;6.00;3.80;;;;;;;10.50;67.53;98323.70;233935;216;138959;-65
2023/11/15 15:33:48;;;;;;;2.00;1.30;;;;;;;10.50;66.73;98328.02;233964;216;149456;-65
2023/11/15 15:38:53;;;;;;;3.20;1.70;;;;;;;10.40;66.46;98329.55;233591;216;293248;-65
2023/11/15 15:43:57;;;;;;;3.60;2.40;;;;;;;10.32;66.67;98336.36;234051;216;138616;-65
2023/11/15 15:49:00;;;;;;;2.50;2.20;;;;;;;10.28;66.88;98346.61;234007;216;149617;-66
2023/11/15 15:54:03;;;;;;;4.40;2.50;;;;;;;10.20;67.10;98343.74;234136;216;141775;-66
2023/11/15 15:59:08;;;;;;;3.40;1.80;;;;;;;10.14;67.33;98337.62;234199;216;138781;-65
2023/11/15 16:04:13;;;;;;;2.70;1.50;;;;;;;10.09;67.71;98340.66;234010;215;150192;-66
2023/11/15 16:09:16;;;;;;;2.10;1.40;;;;;;;10.14;67.93;98351.45;234062;215;138661;-69
2023/11/15 16:19:29;;;;;;;10.30;6.50;;;;;;;10.29;68.34;98371.65;232783;225;698790;-70
2023/11/15 16:24:32;;;;;;;5.60;3.00;;;;;;;10.25;67.87;98382.95;234143;217;135955;-68
2023/11/15 16:29:36;;;;;;;3.40;2.40;;;;;;;10.22;67.97;98398.80;234269;217;144570;-69
2023/11/15 16:34:39;;;;;;;3.70;2.10;;;;;;;10.21;67.74;98408.03;234037;216;140067;-67
2023/11/15 16:39:43;;;;;;;2.80;1.90;;;;;;;10.25;67.78;98422.84;234168;216;136940;-68
2023/11/15 16:44:46;;;;;;;3.00;2.00;;;;;;;10.24;67.53;98433.91;234177;216;143755;-69
2023/11/15 16:49:49;;;;;;;4.10;2.40;;;;;;;10.31;67.63;98446.20;234094;214;138738;-69
2023/11/15 16:54:52;;;;;;;4.20;2.10;;;;;;;10.44;67.26;98450.79;234219;216;137325;-68
2023/11/15 16:59:57;;;;;;;5.60;2.50;;;;;;;10.55;66.41;98456.35;234265;216;143728;-68
2023/11/15 17:05:00;;;;;;;4.40;2.20;;;;;;;10.57;66.30;98466.16;234236;216;140271;-68
2023/11/15 17:10:04;;;;;;;3.20;2.10;;;;;;;10.54;66.21;98466.60;234226;215;137340;-68
2023/11/15 17:15:08;;;;;;;4.30;2.50;;;;;;;10.49;66.19;98465.18;234079;215;146021;-67
2023/11/15 17:20:13;;;;;;;4.00;2.90;;;;;;;10.44;66.60;98461.77;234288;215;141128;-65
2023/11/15 17:25:16;;;;;;;5.00;3.50;;;;;;;10.42;66.45;98462.98;234292;214;137607;-65
2023/11/15 17:30:22;;;;;;;;;;;;;;;10.36;66.53;98464.13;234320;215;145511;-67
2023/11/15 17:35:25;;;;;;;5.40;3.40;;;;;;;10.29;66.74;98480.41;234364;215;139503;-64
2023/11/15 17:40:31;;;;;;;6.20;3.70;;;;;;;10.29;66.71;98483.61;234285;215;136521;-65
2023/11/15 17:45:34;;;;;;;8.00;4.00;;;;;;;10.26;66.97;98491.76;233742;215;146044;-67
2023/11/15 17:50:37;;;;;;;7.70;3.80;;;;;;;10.31;66.90;98501.15;234203;215;139420;-64
2023/11/15 17:55:40;;;;;;;6.10;3.40;;;;;;;10.30;66.72;98511.15;234219;215;136320;-65
2023/11/15 18:00:43;;;;;;;6.50;4.40;;;;;;;10.26;66.82;98521.20;234250;215;145587;-65
2023/11/15 18:05:47;;;;;;;5.60;3.40;;;;;;;10.19;66.87;98525.17;234274;215;140001;-64
2023/11/15 18:10:50;;;;;;;5.30;3.70;;;;;;;10.15;67.01;98526.30;234270;215;137447;-65
2023/11/15 18:15:54;;;;;;;5.30;3.80;;;;;;;10.09;67.20;98535.98;234159;215;145634;-65
2023/11/15 18:20:57;;;;;;;7.70;3.10;;;;;;;10.07;67.35;98545.83;234136;215;139009;-62
2023/11/15 18:26:01;;;;;;;6.60;3.60;;;;;;;10.19;67.08;98549.30;234225;215;137997;-65
2023/11/15 18:31:06;;;;;;;6.30;2.90;;;;;;;10.38;66.65;98556.71;234179;215;145674;-64
2023/11/15 18:36:10;;;;;;;5.60;2.90;;;;;;;10.53;66.12;98567.05;234186;215;138664;-65
2023/11/15 18:41:15;;;;;;;4.20;2.80;;;;;;;10.71;65.64;98574.26;234295;215;136244;-65
2023/11/15 18:46:19;;;;;;;3.50;3.20;;;;;;;10.85;65.23;98576.98;234172;215;145657;-65
2023/11/15 18:51:27;;;;;;;4.90;3.50;;;;;;;10.96;64.80;98590.99;234176;215;141210;-65
2023/11/15 18:56:30;;;;;;;8.20;4.60;;;;;;;10.99;64.50;98599.66;234228;215;137232;-65
2023/11/15 19:01:34;;;;;;;6.00;4.20;;;;;;;10.88;64.45;98612.10;234243;215;145547;-65
2023/11/15 19:06:37;;;;;;;7.90;4.50;;;;;;;10.80;64.46;98626.02;234259;215;139002;-65
2023/11/15 19:11:41;;;;;;;9.50;4.30;;;;;;;10.70;64.53;98632.90;234352;215;136956;-66
2023/11/15 19:16:46;;;;;;;7.10;4.60;;;;;;;10.57;64.95;98638.94;234141;215;145702;-65
2023/11/15 19:21:50;;;;;;;5.50;3.60;;;;;;;10.40;65.37;98642.04;234156;215;141045;-65
2023/11/15 19:26:53;;;;;;;46.90;30.30;;;;;;;10.35;65.51;98644.88;234120;215;137948;-65
2023/11/15 19:31:57;;;;;;;14.70;9.30;;;;;;;10.39;65.67;98646.70;234179;215;145942;-65
2023/11/15 19:37:01;;;;;;;7.00;4.20;;;;;;;10.41;65.36;98650.50;234304;215;140441;-64
2023/11/15 19:42:04;;;;;;;7.20;4.50;;;;;;;10.41;65.34;98646.60;234224;215;138018;-65
2023/11/15 19:47:08;;;;;;;8.00;4.60;;;;;;;10.39;65.14;98656.48;234332;215;145933;-64
2023/11/15 19:52:11;;;;;;;5.90;4.20;;;;;;;10.30;65.26;98656.22;233655;215;140256;-63
2023/11/15 19:57:15;;;;;;;7.10;4.70;;;;;;;10.15;65.52;98660.02;234157;215;137326;-63
2023/11/15 20:02:18;;;;;;;7.30;4.80;;;;;;;10.06;65.85;98666.29;234313;215;145535;-64
2023/11/15 20:07:21;;;;;;;7.10;4.60;;;;;;;10.00;66.05;98671.10;234147;215;139625;-65
2023/11/15 20:12:26;;;;;;;8.90;5.00;;;;;;;9.95;66.07;98673.52;234211;215;137150;-64
2023/11/15 20:17:30;;;;;;;7.20;5.30;;;;;;;9.92;66.31;98678.02;234298;215;145818;-64
2023/11/15 20:22:35;;;;;;;8.50;5.00;;;;;;;9.90;66.63;98683.11;234238;215;138977;-66
2023/11/15 20:27:53;;;;;;;8.60;4.70;;;;;;;9.91;66.76;98685.48;234173;216;137033;-66
2023/11/15 20:32:56;;;;;;;8.70;4.70;;;;;;;9.98;66.84;98691.41;234252;215;145498;-67
2023/11/15 20:37:59;;;;;;;6.90;4.00;;;;;;;10.00;66.53;98698.21;234133;215;138977;-63
2023/11/15 20:43:04;;;;;;;6.80;4.10;;;;;;;10.03;66.25;98706.54;234151;216;137772;-65
2023/11/15 20:48:18;;;;;;;7.10;4.30;;;;;;;9.99;66.20;98710.38;234176;215;145700;-64
2023/11/15 20:53:22;;;;;;;7.50;4.20;;;;;;;9.95;66.23;98718.73;234270;215;139532;-65
2023/11/15 20:58:26;;;;;;;7.50;4.40;;;;;;;9.94;66.19;98722.33;234253;215;137869;-64
2023/11/15 21:03:31;;;;;;;67.00;51.20;;;;;;;9.94;66.93;98730.12;234181;215;145525;-64
2023/11/15 21:08:37;;;;;;;6.90;4.10;;;;;;;10.07;66.80;98728.41;234171;215;139502;-64
2023/11/15 21:13:43;;;;;;;6.10;4.00;;;;;;;10.10;66.23;98736.34;234090;215;137607;-65
2023/11/15 21:18:46;;;;;;;7.50;4.40;;;;;;;10.11;67.07;98741.07;234099;215;145671;-66
2023/11/15 21:23:50;;;;;;;9.70;4.50;;;;;;;10.09;67.78;98747.44;234332;215;139403;-64
2023/11/15 21:28:54;;;;;;;9.20;4.90;;;;;;;10.03;68.37;98755.23;234284;215;137364;-64
2023/11/15 21:33:57;;;;;;;8.70;5.10;;;;;;;9.98;68.89;98753.44;234156;215;146670;-65
2023/11/15 21:39:01;;;;;;;27.80;19.60;;;;;;;9.92;69.56;98759.15;234205;215;139906;-63
2023/11/15 21:44:05;;;;;;;1080.60;675.10;;;;;;;9.98;69.91;98761.63;234255;215;138918;-66
2023/11/15 21:49:09;;;;;;;27.80;15.20;;;;;;;10.04;70.34;98769.17;234165;216;145833;-62
2023/11/15 21:54:14;;;;;;;14.70;10.50;;;;;;;10.05;70.66;98781.31;234286;215;139003;-61
2023/11/15 21:59:17;;;;;;;7.30;5.30;;;;;;;10.07;70.44;98784.45;234308;215;138895;-62
2023/11/15 22:04:20;;;;;;;7.10;5.30;;;;;;;10.08;70.48;98789.52;234104;215;146936;-62
2023/11/15 22:09:23;;;;;;;5.90;4.30;;;;;;;10.02;70.22;98795.19;234173;213;140007;-62
2023/11/15 22:14:27;;;;;;;5.10;3.30;;;;;;;9.96;69.80;98800.54;234148;215;137637;-62
2023/11/15 22:19:30;;;;;;;3.30;2.00;;;;;;;9.85;69.41;98796.44;234210;215;145493;-62
2023/11/15 22:24:34;;;;;;;3.30;2.40;;;;;;;9.70;68.98;98799.17;234149;215;139399;-62
2023/11/15 22:29:37;;;;;;;2.10;1.50;;;;;;;9.54;69.16;98809.02;234258;215;137256;-62
2023/11/15 22:34:40;;;;;;;2.30;1.50;;;;;;;9.39;69.28;98814.17;234181;215;146888;-62
2023/11/15 22:39:44;;;;;;;1.80;1.40;;;;;;;9.30;69.52;98813.12;234066;215;139019;-62
2023/11/15 22:44:47;;;;;;;2.40;1.20;;;;;;;9.23;69.43;98816.00;234177;215;137334;-62
2023/11/15 22:49:52;;;;;;;2.60;1.30;;;;;;;9.18;69.48;98814.90;234147;215;146363;-61
2023/11/15 22:54:55;;;;;;;2.80;1.50;;;;;;;9.18;69.71;98813.00;234104;215;138689;-62
2023/11/15 22:59:58;;;;;;;2.00;1.40;;;;;;;9.18;69.64;98814.03;234141;215;136875;-61
2023/11/15 23:05:02;;;;;;;3.80;1.60;;;;;;;9.14;69.78;98818.69;234128;215;145795;-62
2023/11/15 23:10:06;;;;;;;4.60;3.30;;;;;;;9.14;69.95;98812.36;234185;215;140129;-62
2023/11/15 23:15:11;;;;;;;2.30;1.60;;;;;;;9.07;70.06;98813.63;234232;215;137353;-62
2023/11/15 23:20:16;;;;;;;3.50;1.90;;;;;;;8.99;70.31;98821.36;234221;215;145818;-63
2023/11/15 23:25:32;;;;;;;3.10;2.00;;;;;;;8.98;70.47;98822.67;234081;216;138909;-61
2023/11/15 23:30:39;;;;;;;3.90;2.20;;;;;;;9.01;70.47;98827.08;234197;215;136037;-62
2023/11/15 23:35:44;;;;;;;;;;;;;;;9.07;70.52;98828.33;234337;215;145680;-61
2023/11/15 23:40:48;;;;;;;27.50;17.40;;;;;;;9.15;70.74;98831.72;234223;215;139451;-61
2023/11/15 23:45:54;;;;;;;4.90;3.20;;;;;;;9.30;70.79;98832.44;234051;215;138821;-61